sensor_id;sensor_type;location;lat;lon;timestamp;pressure;altitude;pressure_sealevel;temperature;humidity
70968;BME280;58629;48.808;8.820;2022-12-18T00:01:51;98175.56;;;-12.22;85.20
70968;BME280;58629;48.808;8.820;2022-12-18T00:04:22;98178.59;;;-12.25;83.96
70968;BME280;58629;48.808;8.820;2022-12-18T00:06:48;98174.03;;;-12.23;84.28
70968;BME280;58629;48.808;8.820;2022-12-18T00:09:14;98171.28;;;-12.38;83.85
70968;BME280;58629;48.808;8.820;2022-12-18T00:11:40;98174.06;;;-12.39;83.43
70968;BME280;58629;48.808;8.820;2022-12-18T00:14:05;98170.44;;;-12.43;83.20
70968;BME280;58629;48.808;8.820;2022-12-18T00:16:31;98174.28;;;-12.41;85.07
70968;BME280;58629;48.808;8.820;2022-12-18T00:18:59;98168.91;;;-12.44;85.13
70968;BME280;58629;48.808;8.820;2022-12-18T00:21:25;98166.88;;;-12.42;84.86
70968;BME280;58629;48.808;8.820;2022-12-18T00:23:51;98170.75;;;-12.40;84.99
70968;BME280;58629;48.808;8.820;2022-12-18T00:26:19;98175.31;;;-12.42;84.94
70968;BME280;58629;48.808;8.820;2022-12-18T00:28:46;98177.38;;;-12.39;85.36
70968;BME280;58629;48.808;8.820;2022-12-18T00:31:14;98179.09;;;-12.44;84.83
70968;BME280;58629;48.808;8.820;2022-12-18T00:33:40;98177.25;;;-12.32;85.64
70968;BME280;58629;48.808;8.820;2022-12-18T00:36:09;98185.13;;;-12.34;85.65
70968;BME280;58629;48.808;8.820;2022-12-18T00:38:34;98180.47;;;-12.37;85.58
70968;BME280;58629;48.808;8.820;2022-12-18T00:41:00;98181.56;;;-12.33;85.82
70968;BME280;58629;48.808;8.820;2022-12-18T00:43:25;98180.88;;;-12.28;85.98
70968;BME280;58629;48.808;8.820;2022-12-18T00:45:50;98181.66;;;-12.28;86.03
70968;BME280;58629;48.808;8.820;2022-12-18T00:48:16;98182.41;;;-12.27;85.61
70968;BME280;58629;48.808;8.820;2022-12-18T00:50:41;98189.50;;;-12.29;85.79
70968;BME280;58629;48.808;8.820;2022-12-18T00:53:12;98188.22;;;-12.32;85.03
70968;BME280;58629;48.808;8.820;2022-12-18T00:55:39;98188.44;;;-12.33;85.00
70968;BME280;58629;48.808;8.820;2022-12-18T00:58:05;98180.31;;;-12.30;84.91
70968;BME280;58629;48.808;8.820;2022-12-18T01:00:30;98183.72;;;-12.25;85.02
70968;BME280;58629;48.808;8.820;2022-12-18T01:02:55;98175.53;;;-12.27;84.55
70968;BME280;58629;48.808;8.820;2022-12-18T01:05:21;98175.91;;;-12.35;84.79
70968;BME280;58629;48.808;8.820;2022-12-18T01:07:46;98181.34;;;-12.48;83.75
70968;BME280;58629;48.808;8.820;2022-12-18T01:10:12;98179.88;;;-12.44;84.81
70968;BME280;58629;48.808;8.820;2022-12-18T01:12:37;98176.84;;;-12.41;85.98
70968;BME280;58629;48.808;8.820;2022-12-18T01:15:05;98180.41;;;-12.42;83.68
70968;BME280;58629;48.808;8.820;2022-12-18T01:17:30;98171.22;;;-12.43;84.13
70968;BME280;58629;48.808;8.820;2022-12-18T01:19:55;98161.47;;;-12.46;83.39
70968;BME280;58629;48.808;8.820;2022-12-18T01:22:21;98166.97;;;-12.54;83.27
70968;BME280;58629;48.808;8.820;2022-12-18T01:24:46;98167.72;;;-12.54;83.91
70968;BME280;58629;48.808;8.820;2022-12-18T01:27:11;98180.09;;;-12.46;85.16
70968;BME280;58629;48.808;8.820;2022-12-18T01:29:36;98177.38;;;-12.39;85.77
70968;BME280;58629;48.808;8.820;2022-12-18T01:32:02;98173.13;;;-12.33;85.68
70968;BME280;58629;48.808;8.820;2022-12-18T01:34:27;98169.81;;;-12.34;85.68
70968;BME280;58629;48.808;8.820;2022-12-18T01:36:52;98178.56;;;-12.30;85.90
70968;BME280;58629;48.808;8.820;2022-12-18T01:39:18;98175.69;;;-12.33;84.16
70968;BME280;58629;48.808;8.820;2022-12-18T01:41:44;98175.91;;;-12.35;83.33
70968;BME280;58629;48.808;8.820;2022-12-18T01:44:53;98177.28;;;-12.27;84.84
70968;BME280;58629;48.808;8.820;2022-12-18T01:47:25;98169.72;;;-12.22;85.13
70968;BME280;58629;48.808;8.820;2022-12-18T01:49:51;98166.91;;;-12.21;84.60
70968;BME280;58629;48.808;8.820;2022-12-18T01:52:18;98170.25;;;-12.20;85.05
70968;BME280;58629;48.808;8.820;2022-12-18T01:54:44;98171.25;;;-12.21;85.74
70968;BME280;58629;48.808;8.820;2022-12-18T01:57:10;98174.28;;;-12.24;84.92
70968;BME280;58629;48.808;8.820;2022-12-18T01:59:36;98176.00;;;-12.30;84.99
70968;BME280;58629;48.808;8.820;2022-12-18T02:02:02;98168.88;;;-12.28;85.21
70968;BME280;58629;48.808;8.820;2022-12-18T02:04:29;98174.09;;;-12.18;85.60
70968;BME280;58629;48.808;8.820;2022-12-18T02:07:05;98170.59;;;-12.12;84.88
70968;BME280;58629;48.808;8.820;2022-12-18T02:09:59;98182.09;;;-12.14;85.69
70968;BME280;58629;48.808;8.820;2022-12-18T02:12:35;98182.22;;;-12.04;86.52
70968;BME280;58629;48.808;8.820;2022-12-18T02:15:17;98186.59;;;-12.00;86.36
70968;BME280;58629;48.808;8.820;2022-12-18T02:17:52;98174.69;;;-11.94;86.73
70968;BME280;58629;48.808;8.820;2022-12-18T02:20:28;98181.16;;;-11.87;86.96
70968;BME280;58629;48.808;8.820;2022-12-18T02:23:06;98176.09;;;-11.82;86.91
70968;BME280;58629;48.808;8.820;2022-12-18T02:28:28;98177.69;;;-11.76;85.91
70968;BME280;58629;48.808;8.820;2022-12-18T02:30:59;98170.16;;;-11.87;85.27
70968;BME280;58629;48.808;8.820;2022-12-18T02:33:27;98176.06;;;-11.87;85.25
70968;BME280;58629;48.808;8.820;2022-12-18T02:35:55;98172.34;;;-11.96;84.51
70968;BME280;58629;48.808;8.820;2022-12-18T02:38:23;98175.72;;;-11.90;85.49
70968;BME280;58629;48.808;8.820;2022-12-18T02:40:49;98173.19;;;-11.90;85.12
70968;BME280;58629;48.808;8.820;2022-12-18T02:43:16;98177.81;;;-11.87;85.34
70968;BME280;58629;48.808;8.820;2022-12-18T02:48:49;98183.19;;;-11.89;85.61
70968;BME280;58629;48.808;8.820;2022-12-18T02:51:33;98175.31;;;-11.82;85.67
70968;BME280;58629;48.808;8.820;2022-12-18T02:54:09;98179.72;;;-11.78;85.40
70968;BME280;58629;48.808;8.820;2022-12-18T02:56:46;98173.91;;;-11.73;85.63
70968;BME280;58629;48.808;8.820;2022-12-18T02:59:47;98174.44;;;-11.71;85.36
70968;BME280;58629;48.808;8.820;2022-12-18T03:02:26;98178.06;;;-11.67;85.49
70968;BME280;58629;48.808;8.820;2022-12-18T03:04:56;98187.00;;;-11.65;85.34
70968;BME280;58629;48.808;8.820;2022-12-18T03:07:32;98186.00;;;-11.64;85.42
70968;BME280;58629;48.808;8.820;2022-12-18T03:10:00;98193.16;;;-11.66;85.70
70968;BME280;58629;48.808;8.820;2022-12-18T03:12:38;98190.09;;;-11.63;85.82
70968;BME280;58629;48.808;8.820;2022-12-18T03:15:13;98187.31;;;-11.61;86.47
70968;BME280;58629;48.808;8.820;2022-12-18T03:17:46;98191.09;;;-11.69;85.81
70968;BME280;58629;48.808;8.820;2022-12-18T03:20:17;98184.94;;;-11.68;86.30
70968;BME280;58629;48.808;8.820;2022-12-18T03:22:46;98177.56;;;-11.64;86.01
70968;BME280;58629;48.808;8.820;2022-12-18T03:25:14;98181.13;;;-11.65;85.61
70968;BME280;58629;48.808;8.820;2022-12-18T03:27:45;98185.50;;;-11.66;85.27
70968;BME280;58629;48.808;8.820;2022-12-18T03:30:15;98194.34;;;-11.73;85.78
70968;BME280;58629;48.808;8.820;2022-12-18T03:35:10;98191.47;;;-11.55;86.09
70968;BME280;58629;48.808;8.820;2022-12-18T03:37:38;98186.47;;;-11.45;85.69
70968;BME280;58629;48.808;8.820;2022-12-18T03:40:04;98189.25;;;-11.46;85.86
70968;BME280;58629;48.808;8.820;2022-12-18T03:42:44;98185.72;;;-11.40;85.31
70968;BME280;58629;48.808;8.820;2022-12-18T03:47:51;98181.53;;;-11.51;85.31
70968;BME280;58629;48.808;8.820;2022-12-18T03:50:19;98180.38;;;-11.66;85.49
70968;BME280;58629;48.808;8.820;2022-12-18T03:52:57;98184.38;;;-11.75;85.93
70968;BME280;58629;48.808;8.820;2022-12-18T03:55:27;98183.31;;;-11.79;86.62
70968;BME280;58629;48.808;8.820;2022-12-18T03:57:54;98179.72;;;-11.78;86.86
70968;BME280;58629;48.808;8.820;2022-12-18T04:00:20;98173.91;;;-11.73;86.78
70968;BME280;58629;48.808;8.820;2022-12-18T04:02:50;98172.66;;;-11.71;86.12
70968;BME280;58629;48.808;8.820;2022-12-18T04:05:18;98179.59;;;-11.66;86.09
70968;BME280;58629;48.808;8.820;2022-12-18T04:07:47;98171.66;;;-11.70;86.17
70968;BME280;58629;48.808;8.820;2022-12-18T04:10:14;98182.41;;;-11.68;86.52
70968;BME280;58629;48.808;8.820;2022-12-18T04:12:40;98185.97;;;-11.69;86.51
70968;BME280;58629;48.808;8.820;2022-12-18T04:15:07;98188.03;;;-11.66;86.52
70968;BME280;58629;48.808;8.820;2022-12-18T04:17:32;98183.72;;;-11.60;87.08
70968;BME280;58629;48.808;8.820;2022-12-18T04:19:58;98181.94;;;-11.60;87.15
70968;BME280;58629;48.808;8.820;2022-12-18T04:22:23;98187.34;;;-11.56;87.52
70968;BME280;58629;48.808;8.820;2022-12-18T04:24:48;98185.88;;;-11.52;87.84
70968;BME280;58629;48.808;8.820;2022-12-18T04:27:13;98184.38;;;-11.48;88.15
70968;BME280;58629;48.808;8.820;2022-12-18T04:29:39;98185.72;;;-11.40;88.63
70968;BME280;58629;48.808;8.820;2022-12-18T04:32:04;98173.59;;;-11.28;86.88
70968;BME280;58629;48.808;8.820;2022-12-18T04:34:29;98169.75;;;-11.31;86.37
70968;BME280;58629;48.808;8.820;2022-12-18T04:36:55;98169.75;;;-11.31;86.95
70968;BME280;58629;48.808;8.820;2022-12-18T04:39:20;98172.88;;;-11.24;86.18
70968;BME280;58629;48.808;8.820;2022-12-18T04:41:46;98175.69;;;-11.25;87.10
70968;BME280;58629;48.808;8.820;2022-12-18T04:44:11;98172.63;;;-11.22;87.23
70968;BME280;58629;48.808;8.820;2022-12-18T04:46:36;98165.56;;;-11.15;86.71
70968;BME280;58629;48.808;8.820;2022-12-18T04:49:02;98166.53;;;-11.16;86.74
70968;BME280;58629;48.808;8.820;2022-12-18T04:51:27;98163.22;;;-11.17;86.51
70968;BME280;58629;48.808;8.820;2022-12-18T04:53:53;98164.72;;;-11.21;87.48
70968;BME280;58629;48.808;8.820;2022-12-18T04:56:18;98168.38;;;-11.12;87.22
70968;BME280;58629;48.808;8.820;2022-12-18T04:58:44;98169.44;;;-11.08;87.94
70968;BME280;58629;48.808;8.820;2022-12-18T05:01:11;98164.88;;;-11.06;88.32
70968;BME280;58629;48.808;8.820;2022-12-18T05:03:37;98160.53;;;-11.05;89.38
70968;BME280;58629;48.808;8.820;2022-12-18T05:06:04;98170.63;;;-10.89;89.25
70968;BME280;58629;48.808;8.820;2022-12-18T05:08:29;98174.53;;;-10.81;88.41
70968;BME280;58629;48.808;8.820;2022-12-18T05:10:59;98170.47;;;-10.77;88.10
70968;BME280;58629;48.808;8.820;2022-12-18T05:13:25;98180.47;;;-10.76;88.61
70968;BME280;58629;48.808;8.820;2022-12-18T05:15:52;98186.06;;;-10.79;88.43
70968;BME280;58629;48.808;8.820;2022-12-18T05:18:18;98181.91;;;-10.85;88.77
70968;BME280;58629;48.808;8.820;2022-12-18T05:20:43;98181.13;;;-10.85;88.66
70968;BME280;58629;48.808;8.820;2022-12-18T05:23:08;98182.16;;;-10.86;88.88
70968;BME280;58629;48.808;8.820;2022-12-18T05:25:33;98180.84;;;-10.89;88.34
70968;BME280;58629;48.808;8.820;2022-12-18T05:27:59;98192.81;;;-10.99;87.95
70968;BME280;58629;48.808;8.820;2022-12-18T05:30:24;98192.31;;;-10.96;88.91
70968;BME280;58629;48.808;8.820;2022-12-18T05:32:49;98177.78;;;-10.91;89.30
70968;BME280;58629;48.808;8.820;2022-12-18T05:35:15;98177.59;;;-10.84;89.38
70968;BME280;58629;48.808;8.820;2022-12-18T05:37:40;98178.63;;;-10.80;89.35
70968;BME280;58629;48.808;8.820;2022-12-18T05:40:06;98184.28;;;-10.78;89.70
70968;BME280;58629;48.808;8.820;2022-12-18T05:42:31;98185.81;;;-10.77;89.81
70968;BME280;58629;48.808;8.820;2022-12-18T05:44:56;98191.78;;;-10.72;89.81
70968;BME280;58629;48.808;8.820;2022-12-18T05:47:22;98195.59;;;-10.69;89.82
70968;BME280;58629;48.808;8.820;2022-12-18T05:49:47;98199.75;;;-10.63;89.41
70968;BME280;58629;48.808;8.820;2022-12-18T05:52:12;98197.25;;;-10.58;89.61
70968;BME280;58629;48.808;8.820;2022-12-18T05:54:37;98187.75;;;-10.57;89.48
70968;BME280;58629;48.808;8.820;2022-12-18T05:57:04;98194.00;;;-10.43;90.18
70968;BME280;58629;48.808;8.820;2022-12-18T05:59:29;98187.94;;;-10.32;90.95
70968;BME280;58629;48.808;8.820;2022-12-18T06:01:54;98186.19;;;-10.27;91.68
70968;BME280;58629;48.808;8.820;2022-12-18T06:04:19;98180.56;;;-10.24;91.11
70968;BME280;58629;48.808;8.820;2022-12-18T06:06:45;98186.22;;;-10.22;91.50
70968;BME280;58629;48.808;8.820;2022-12-18T06:09:10;98188.84;;;-10.07;92.45
70968;BME280;58629;48.808;8.820;2022-12-18T06:11:37;98198.59;;;-10.04;92.19
70968;BME280;58629;48.808;8.820;2022-12-18T06:14:03;98193.03;;;-9.91;92.27
70968;BME280;58629;48.808;8.820;2022-12-18T06:16:30;98194.56;;;-9.95;91.87
70968;BME280;58629;48.808;8.820;2022-12-18T06:19:00;98198.13;;;-9.96;93.10
70968;BME280;58629;48.808;8.820;2022-12-18T06:21:26;98194.78;;;-9.96;93.38
70968;BME280;58629;48.808;8.820;2022-12-18T06:23:51;98200.22;;;-9.88;92.82
70968;BME280;58629;48.808;8.820;2022-12-18T06:26:16;98204.06;;;-9.85;93.05
70968;BME280;58629;48.808;8.820;2022-12-18T06:28:42;98201.56;;;-9.75;94.29
70968;BME280;58629;48.808;8.820;2022-12-18T06:31:07;98204.91;;;-9.69;93.58
70968;BME280;58629;48.808;8.820;2022-12-18T06:33:33;98209.28;;;-9.65;92.73
70968;BME280;58629;48.808;8.820;2022-12-18T06:36:10;98205.69;;;-9.64;93.10
70968;BME280;58629;48.808;8.820;2022-12-18T06:38:38;98199.78;;;-9.64;93.35
70968;BME280;58629;48.808;8.820;2022-12-18T06:41:22;98204.16;;;-9.65;93.51
70968;BME280;58629;48.808;8.820;2022-12-18T06:43:47;98211.59;;;-9.63;93.53
70968;BME280;58629;48.808;8.820;2022-12-18T06:46:13;98215.47;;;-9.61;93.62
70968;BME280;58629;48.808;8.820;2022-12-18T06:48:38;98218.56;;;-9.59;94.05
70968;BME280;58629;48.808;8.820;2022-12-18T06:51:04;98215.22;;;-9.54;93.46
70968;BME280;58629;48.808;8.820;2022-12-18T06:53:29;98225.50;;;-9.49;93.44
70968;BME280;58629;48.808;8.820;2022-12-18T06:56:05;98219.34;;;-9.53;93.23
70968;BME280;58629;48.808;8.820;2022-12-18T06:58:31;98222.91;;;-9.54;92.46
70968;BME280;58629;48.808;8.820;2022-12-18T07:01:01;98223.19;;;-9.51;93.20
70968;BME280;58629;48.808;8.820;2022-12-18T07:03:26;98228.06;;;-9.49;92.45
70968;BME280;58629;48.808;8.820;2022-12-18T07:05:52;98230.66;;;-9.44;93.30
70968;BME280;58629;48.808;8.820;2022-12-18T07:08:17;98236.84;;;-9.30;92.67
70968;BME280;58629;48.808;8.820;2022-12-18T07:10:43;98223.56;;;-9.12;93.19
70968;BME280;58629;48.808;8.820;2022-12-18T07:13:09;98228.22;;;-8.99;92.28
70968;BME280;58629;48.808;8.820;2022-12-18T07:15:35;98234.63;;;-9.02;92.97
70968;BME280;58629;48.808;8.820;2022-12-18T07:18:00;98227.19;;;-9.03;91.51
70968;BME280;58629;48.808;8.820;2022-12-18T07:20:25;98232.56;;;-9.05;91.97
70968;BME280;58629;48.808;8.820;2022-12-18T07:22:51;98238.47;;;-9.09;92.03
70968;BME280;58629;48.808;8.820;2022-12-18T07:25:16;98239.75;;;-9.12;91.77
70968;BME280;58629;48.808;8.820;2022-12-18T07:27:41;98228.69;;;-9.12;92.82
70968;BME280;58629;48.808;8.820;2022-12-18T07:30:07;98235.38;;;-9.11;91.94
70968;BME280;58629;48.808;8.820;2022-12-18T07:32:32;98223.34;;;-9.06;92.49
70968;BME280;58629;48.808;8.820;2022-12-18T07:34:58;98221.81;;;-8.97;91.55
70968;BME280;58629;48.808;8.820;2022-12-18T07:37:23;98218.25;;;-8.80;91.36
70968;BME280;58629;48.808;8.820;2022-12-18T07:39:48;98220.81;;;-8.65;92.18
70968;BME280;58629;48.808;8.820;2022-12-18T07:42:13;98222.63;;;-8.66;92.17
70968;BME280;58629;48.808;8.820;2022-12-18T07:45:00;98220.31;;;-8.62;92.64
70968;BME280;58629;48.808;8.820;2022-12-18T07:47:27;98229.81;;;-8.58;92.21
70968;BME280;58629;48.808;8.820;2022-12-18T07:49:52;98229.56;;;-8.56;92.33
70968;BME280;58629;48.808;8.820;2022-12-18T07:52:18;98234.69;;;-8.51;92.66
70968;BME280;58629;48.808;8.820;2022-12-18T07:54:43;98233.16;;;-8.42;93.49
70968;BME280;58629;48.808;8.820;2022-12-18T07:57:09;98230.31;;;-8.36;93.17
70968;BME280;58629;48.808;8.820;2022-12-18T07:59:34;98233.41;;;-8.29;92.65
70968;BME280;58629;48.808;8.820;2022-12-18T08:02:00;98237.75;;;-8.19;93.41
70968;BME280;58629;48.808;8.820;2022-12-18T08:04:25;98236.22;;;-8.10;92.40
70968;BME280;58629;48.808;8.820;2022-12-18T08:06:51;98234.41;;;-8.05;93.24
70968;BME280;58629;48.808;8.820;2022-12-18T08:09:17;98230.50;;;-7.92;93.21
70968;BME280;58629;48.808;8.820;2022-12-18T08:11:42;98230.75;;;-7.78;92.64
70968;BME280;58629;48.808;8.820;2022-12-18T08:14:07;98239.47;;;-7.74;93.20
70968;BME280;58629;48.808;8.820;2022-12-18T08:16:33;98242.03;;;-7.69;93.39
70968;BME280;58629;48.808;8.820;2022-12-18T08:18:58;98251.00;;;-7.57;92.63
70968;BME280;58629;48.808;8.820;2022-12-18T08:21:27;98241.47;;;-7.51;93.16
70968;BME280;58629;48.808;8.820;2022-12-18T08:23:55;98242.97;;;-7.40;93.72
70968;BME280;58629;48.808;8.820;2022-12-18T08:26:21;98241.13;;;-7.30;93.50
70968;BME280;58629;48.808;8.820;2022-12-18T08:28:47;98242.63;;;-7.24;92.96
70968;BME280;58629;48.808;8.820;2022-12-18T08:31:13;98237.47;;;-7.19;92.06
70968;BME280;58629;48.808;8.820;2022-12-18T08:33:38;98241.09;;;-7.20;92.18
70968;BME280;58629;48.808;8.820;2022-12-18T08:36:05;98245.94;;;-7.13;91.75
70968;BME280;58629;48.808;8.820;2022-12-18T08:38:31;98244.91;;;-7.12;92.12
70968;BME280;58629;48.808;8.820;2022-12-18T08:41:08;98245.63;;;-7.01;92.48
70968;BME280;58629;48.808;8.820;2022-12-18T08:43:34;98238.59;;;-6.91;91.64
70968;BME280;58629;48.808;8.820;2022-12-18T08:46:18;98236.50;;;-6.84;92.33
70968;BME280;58629;48.808;8.820;2022-12-18T08:48:43;98234.91;;;-6.75;92.05
70968;BME280;58629;48.808;8.820;2022-12-18T08:51:09;98234.31;;;-6.62;92.58
70968;BME280;58629;48.808;8.820;2022-12-18T08:53:35;98228.03;;;-6.46;91.99
70968;BME280;58629;48.808;8.820;2022-12-18T08:56:02;98226.84;;;-6.30;92.30
70968;BME280;58629;48.808;8.820;2022-12-18T08:58:27;98232.16;;;-6.16;92.82
70968;BME280;58629;48.808;8.820;2022-12-18T09:00:52;98221.22;;;-6.08;92.40
70968;BME280;58629;48.808;8.820;2022-12-18T09:03:19;98226.03;;;-5.96;92.37
70968;BME280;58629;48.808;8.820;2022-12-18T09:05:47;98223.28;;;-5.81;92.32
70968;BME280;58629;48.808;8.820;2022-12-18T09:08:13;98218.28;;;-5.49;91.42
70968;BME280;58629;48.808;8.820;2022-12-18T09:10:45;98214.28;;;-5.18;89.75
70968;BME280;58629;48.808;8.820;2022-12-18T09:13:11;98214.44;;;-5.09;89.97
70968;BME280;58629;48.808;8.820;2022-12-18T09:15:45;98216.53;;;-4.93;88.88
70968;BME280;58629;48.808;8.820;2022-12-18T09:18:11;98217.28;;;-4.92;88.73
70968;BME280;58629;48.808;8.820;2022-12-18T09:20:37;98206.63;;;-4.86;88.64
70968;BME280;58629;48.808;8.820;2022-12-18T09:23:03;98199.75;;;-4.77;88.77
70968;BME280;58629;48.808;8.820;2022-12-18T09:25:29;98197.31;;;-4.68;87.79
70968;BME280;58629;48.808;8.820;2022-12-18T09:28:18;98201.84;;;-4.60;88.06
70968;BME280;58629;48.808;8.820;2022-12-18T09:30:47;98198.63;;;-4.52;87.35
70968;BME280;58629;48.808;8.820;2022-12-18T09:33:12;98194.63;;;-4.45;87.73
70968;BME280;58629;48.808;8.820;2022-12-18T09:35:40;98197.41;;;-4.41;86.92
70968;BME280;58629;48.808;8.820;2022-12-18T09:38:07;98201.72;;;-4.36;86.95
70968;BME280;58629;48.808;8.820;2022-12-18T09:40:50;98208.34;;;-4.30;87.38
70968;BME280;58629;48.808;8.820;2022-12-18T09:43:24;98204.16;;;-4.26;86.61
70968;BME280;58629;48.808;8.820;2022-12-18T09:45:57;98203.78;;;-4.20;86.84
70968;BME280;58629;48.808;8.820;2022-12-18T09:48:31;98207.06;;;-4.14;86.67
70968;BME280;58629;48.808;8.820;2022-12-18T09:51:02;98204.19;;;-4.13;87.12
70968;BME280;58629;48.808;8.820;2022-12-18T09:53:32;98205.81;;;-4.03;86.56
70968;BME280;58629;48.808;8.820;2022-12-18T09:56:01;98210.69;;;-4.02;86.89
70968;BME280;58629;48.808;8.820;2022-12-18T09:58:35;98213.69;;;-3.95;87.07
70968;BME280;58629;48.808;8.820;2022-12-18T10:01:11;98218.50;;;-3.88;86.57
70968;BME280;58629;48.808;8.820;2022-12-18T10:03:37;98220.50;;;-3.85;86.29
70968;BME280;58629;48.808;8.820;2022-12-18T10:19:39;98223.50;;;-3.51;85.89
70968;BME280;58629;48.808;8.820;2022-12-18T10:22:18;98224.16;;;-3.45;85.75
70968;BME280;58629;48.808;8.820;2022-12-18T10:24:56;98221.38;;;-3.35;85.90
70968;BME280;58629;48.808;8.820;2022-12-18T10:27:26;98224.06;;;-3.27;86.10
70968;BME280;58629;48.808;8.820;2022-12-18T10:29:53;98215.03;;;-3.16;85.75
70968;BME280;58629;48.808;8.820;2022-12-18T10:32:24;98215.59;;;-3.05;85.17
70968;BME280;58629;48.808;8.820;2022-12-18T10:34:54;98218.25;;;-2.97;85.29
70968;BME280;58629;48.808;8.820;2022-12-18T10:37:24;98231.38;;;-2.80;84.47
70968;BME280;58629;48.808;8.820;2022-12-18T10:40:12;98230.19;;;-2.74;83.32
70968;BME280;58629;48.808;8.820;2022-12-18T10:42:38;98231.16;;;-2.70;83.12
70968;BME280;58629;48.808;8.820;2022-12-18T10:45:14;98225.38;;;-2.67;82.57
70968;BME280;58629;48.808;8.820;2022-12-18T10:47:45;98227.88;;;-2.61;82.44
70968;BME280;58629;48.808;8.820;2022-12-18T10:50:29;98226.97;;;-2.57;83.03
70968;BME280;58629;48.808;8.820;2022-12-18T10:53:00;98224.75;;;-2.50;82.86
70968;BME280;58629;48.808;8.820;2022-12-18T10:55:33;98220.66;;;-2.42;81.84
70968;BME280;58629;48.808;8.820;2022-12-18T11:01:04;98210.03;;;-1.32;92.10
70968;BME280;58629;48.808;8.820;2022-12-18T11:06:04;98199.75;;;0.00;84.78
70968;BME280;58629;48.808;8.820;2022-12-18T11:08:30;98200.59;;;0.50;83.94
70968;BME280;58629;48.808;8.820;2022-12-18T11:10:55;98198.72;;;0.88;80.94
70968;BME280;58629;48.808;8.820;2022-12-18T11:13:22;98191.72;;;1.22;79.06
70968;BME280;58629;48.808;8.820;2022-12-18T11:15:49;98193.16;;;1.52;77.14
70968;BME280;58629;48.808;8.820;2022-12-18T11:18:35;98199.97;;;1.77;75.99
70968;BME280;58629;48.808;8.820;2022-12-18T11:21:08;98197.19;;;1.94;73.27
70968;BME280;58629;48.808;8.820;2022-12-18T11:23:35;98195.91;;;2.00;73.65
70968;BME280;58629;48.808;8.820;2022-12-18T11:26:03;98187.44;;;2.03;71.55
70968;BME280;58629;48.808;8.820;2022-12-18T11:33:47;98192.22;;;2.61;71.06
70968;BME280;58629;48.808;8.820;2022-12-18T11:36:16;98191.69;;;2.80;71.57
70968;BME280;58629;48.808;8.820;2022-12-18T11:38:43;98185.03;;;2.95;70.66
70968;BME280;58629;48.808;8.820;2022-12-18T11:41:45;98179.19;;;3.13;70.89
70968;BME280;58629;48.808;8.820;2022-12-18T11:44:38;98185.78;;;3.23;67.32
70968;BME280;58629;48.808;8.820;2022-12-18T11:47:25;98180.16;;;3.21;67.45
70968;BME280;58629;48.808;8.820;2022-12-18T11:49:55;98184.41;;;3.13;68.25
70968;BME280;58629;48.808;8.820;2022-12-18T11:54:58;98179.88;;;3.38;72.28
70968;BME280;58629;48.808;8.820;2022-12-18T11:57:36;98177.41;;;3.73;73.71
70968;BME280;58629;48.808;8.820;2022-12-18T12:00:13;98170.53;;;4.11;71.78
70968;BME280;58629;48.808;8.820;2022-12-18T12:08:20;98159.38;;;4.46;64.96
70968;BME280;58629;48.808;8.820;2022-12-18T12:21:28;98143.22;;;3.10;60.31
70968;BME280;58629;48.808;8.820;2022-12-18T12:26:42;98152.22;;;1.76;62.74
70968;BME280;58629;48.808;8.820;2022-12-18T12:29:22;98155.25;;;1.34;65.76
70968;BME280;58629;48.808;8.820;2022-12-18T12:34:50;98161.25;;;0.72;67.36
70968;BME280;58629;48.808;8.820;2022-12-18T12:40:26;98163.44;;;0.33;68.93
70968;BME280;58629;48.808;8.820;2022-12-18T12:42:58;98168.44;;;0.17;69.83
70968;BME280;58629;48.808;8.820;2022-12-18T12:50:49;98173.28;;;-0.19;70.99
70968;BME280;58629;48.808;8.820;2022-12-18T12:53:36;98179.88;;;-0.22;72.58
70968;BME280;58629;48.808;8.820;2022-12-18T12:56:03;98182.91;;;-0.03;76.41
70968;BME280;58629;48.808;8.820;2022-12-18T12:59:13;98192.69;;;0.67;81.59
70968;BME280;58629;48.808;8.820;2022-12-18T13:04:42;98183.97;;;1.78;76.23
70968;BME280;58629;48.808;8.820;2022-12-18T13:07:15;98181.56;;;2.18;75.70
70968;BME280;58629;48.808;8.820;2022-12-18T13:13:09;98164.66;;;2.64;72.56
70968;BME280;58629;48.808;8.820;2022-12-18T13:15:47;98167.63;;;2.62;70.69
70968;BME280;58629;48.808;8.820;2022-12-18T13:18:15;98163.47;;;2.61;69.95
70968;BME280;58629;48.808;8.820;2022-12-18T13:20:45;98154.13;;;2.48;65.46
70968;BME280;58629;48.808;8.820;2022-12-18T13:31:12;98153.47;;;2.27;74.04
70968;BME280;58629;48.808;8.820;2022-12-18T13:33:41;98158.03;;;2.42;73.99
70968;BME280;58629;48.808;8.820;2022-12-18T13:36:27;98152.91;;;2.58;71.04
70968;BME280;58629;48.808;8.820;2022-12-18T13:41:41;98148.91;;;2.48;70.65
70968;BME280;58629;48.808;8.820;2022-12-18T13:44:12;98151.31;;;2.41;69.54
70968;BME280;58629;48.808;8.820;2022-12-18T13:46:46;98146.72;;;2.26;69.10
70968;BME280;58629;48.808;8.820;2022-12-18T13:51:40;98135.19;;;2.03;70.60
70968;BME280;58629;48.808;8.820;2022-12-18T13:56:44;98144.19;;;1.82;71.45
70968;BME280;58629;48.808;8.820;2022-12-18T14:04:28;98148.34;;;2.43;74.04
70968;BME280;58629;48.808;8.820;2022-12-18T14:07:17;98140.50;;;2.55;69.86
70968;BME280;58629;48.808;8.820;2022-12-18T14:09:46;98139.22;;;2.49;69.80
70968;BME280;58629;48.808;8.820;2022-12-18T14:12:22;98146.09;;;2.41;69.03
70968;BME280;58629;48.808;8.820;2022-12-18T14:20:28;98153.22;;;1.96;64.86
70968;BME280;58629;48.808;8.820;2022-12-18T14:22:55;98155.47;;;1.41;64.88
70968;BME280;58629;48.808;8.820;2022-12-18T14:25:23;98157.88;;;0.72;66.81
70968;BME280;58629;48.808;8.820;2022-12-18T14:27:53;98148.88;;;0.03;69.31
70968;BME280;58629;48.808;8.820;2022-12-18T14:30:37;98152.66;;;-0.41;71.69
70968;BME280;58629;48.808;8.820;2022-12-18T14:33:11;98152.75;;;-0.84;73.34
70968;BME280;58629;48.808;8.820;2022-12-18T14:35:39;98152.13;;;-1.15;74.50
70968;BME280;58629;48.808;8.820;2022-12-18T14:38:47;98150.41;;;-1.37;75.86
70968;BME280;58629;48.808;8.820;2022-12-18T14:41:15;98150.97;;;-1.65;76.88
70968;BME280;58629;48.808;8.820;2022-12-18T14:43:43;98150.31;;;-1.80;78.08
70968;BME280;58629;48.808;8.820;2022-12-18T14:46:28;98152.53;;;-1.95;78.59
70968;BME280;58629;48.808;8.820;2022-12-18T14:48:55;98154.34;;;-2.04;79.35
70968;BME280;58629;48.808;8.820;2022-12-18T14:51:23;98156.25;;;-2.18;80.42